createdAt,value
2022-09-13T00:06:44.314Z,9.00
2022-09-13T00:09:11.972Z,9.27
2022-09-13T00:11:40.375Z,9.77
2022-09-13T00:14:07.814Z,9.60
2022-09-13T00:16:35.473Z,9.63
2022-09-13T00:19:05.036Z,9.70
2022-09-13T00:21:34.373Z,9.80
2022-09-13T00:26:37.395Z,9.63
2022-09-13T00:29:05.059Z,10.33
2022-09-13T00:31:32.475Z,10.27
2022-09-13T00:34:02.855Z,10.30
2022-09-13T00:36:30.314Z,9.43
2022-09-13T00:38:58.691Z,10.20
2022-09-13T00:41:25.999Z,10.10
2022-09-13T00:43:59.559Z,10.10
2022-09-13T00:46:52.765Z,10.63
2022-09-13T00:49:25.113Z,9.83
2022-09-13T00:51:58.239Z,9.30
2022-09-13T00:54:37.839Z,9.70
2022-09-13T03:17:46.678Z,11.43
2022-09-13T03:20:45.110Z,11.77
2022-09-13T03:23:48.573Z,11.13
2022-09-13T03:26:47.411Z,10.67
2022-09-13T03:29:22.472Z,10.87
2022-09-13T03:32:01.628Z,11.23
2022-09-13T04:12:15.654Z,12.07
2022-09-13T04:14:44.053Z,11.83
2022-09-13T04:17:12.191Z,11.97
2022-09-13T04:19:39.691Z,12.17
2022-09-13T04:22:06.730Z,12.13
2022-09-13T04:24:35.913Z,13.50
2022-09-13T04:27:03.255Z,13.27
2022-09-13T04:29:31.810Z,13.17
2022-09-13T04:31:59.265Z,13.43
2022-09-13T04:34:26.271Z,13.10
2022-09-13T04:37:03.704Z,12.70
2022-09-13T04:39:30.577Z,13.83
2022-09-13T04:41:58.254Z,14.30
2022-09-13T04:44:25.494Z,14.07
2022-09-13T04:46:52.513Z,15.10
2022-09-13T04:49:20.352Z,14.47
2022-09-13T04:51:47.570Z,14.57
2022-09-13T04:54:16.201Z,15.23
2022-09-13T04:56:44.794Z,14.50
2022-09-13T04:59:12.705Z,13.47
2022-09-13T05:01:39.872Z,13.87
2022-09-13T05:04:07.974Z,14.10
2022-09-13T05:06:34.979Z,13.17
2022-09-13T05:09:01.968Z,14.33
2022-09-13T05:11:29.698Z,14.83
2022-09-13T05:13:59.226Z,15.13
2022-09-13T05:16:32.630Z,14.37
2022-09-13T05:19:00.391Z,14.50
2022-09-13T05:21:28.446Z,13.77
2022-09-13T05:23:56.981Z,14.47
2022-09-13T05:26:25.750Z,14.47
2022-09-13T05:28:53.678Z,14.07
2022-09-13T05:31:26.688Z,14.67
2022-09-13T05:33:59.326Z,14.77
2022-09-13T05:36:26.839Z,14.97
2022-09-13T05:39:12.554Z,14.23
2022-09-13T05:41:45.139Z,14.27
2022-09-13T05:44:13.483Z,13.43
2022-09-13T05:46:41.508Z,14.17
2022-09-13T05:49:08.465Z,13.90
2022-09-13T05:51:36.471Z,13.53
2022-09-13T05:54:03.580Z,14.17
2022-09-13T05:56:32.140Z,14.70
2022-09-13T05:58:59.262Z,14.70
2022-09-13T06:01:28.053Z,14.40
2022-09-13T06:03:56.891Z,14.57
2022-09-13T06:06:24.844Z,14.30
2022-09-13T06:08:56.482Z,14.37
2022-09-13T06:11:24.699Z,15.17
2022-09-13T06:13:51.610Z,14.63
2022-09-13T06:16:18.626Z,15.37
2022-09-13T06:18:45.849Z,15.93
2022-09-13T06:21:18.223Z,15.90
2022-09-13T06:23:46.569Z,16.27
2022-09-13T06:26:16.547Z,16.60
2022-09-13T06:28:43.458Z,17.30
2022-09-13T06:31:13.482Z,18.13
2022-09-13T06:33:42.839Z,18.27
2022-09-13T06:36:16.426Z,18.23
2022-09-13T06:38:43.620Z,19.60
2022-09-13T06:41:13.123Z,19.07
2022-09-13T06:43:41.895Z,20.07
2022-09-13T06:46:11.266Z,19.47
2022-09-13T06:48:41.587Z,20.43
2022-09-13T06:51:15.556Z,19.63
2022-09-13T06:53:43.620Z,20.10
2022-09-13T06:56:19.624Z,20.33
2022-09-13T06:58:49.315Z,20.83
2022-09-13T07:01:20.410Z,22.47
2022-09-13T07:03:50.706Z,25.50
2022-09-13T07:06:22.647Z,21.40
2022-09-13T07:08:51.557Z,21.80
2022-09-13T07:11:21.047Z,20.23
2022-09-13T07:13:49.923Z,22.03
2022-09-13T07:16:17.872Z,21.17
2022-09-13T07:18:45.782Z,21.67
2022-09-13T07:21:12.923Z,21.50
2022-09-13T07:23:40.397Z,20.57
2022-09-13T07:26:08.348Z,20.67
2022-09-13T07:28:40.425Z,20.73
2022-09-13T07:31:16.156Z,21.57
2022-09-13T07:33:44.512Z,21.13
2022-09-13T07:36:12.633Z,22.20
2022-09-13T07:38:42.221Z,21.63
2022-09-13T07:41:13.104Z,21.87
2022-09-13T07:43:40.481Z,21.37
2022-09-13T07:46:10.358Z,22.00
2022-09-13T07:48:39.938Z,22.23
2022-09-13T07:51:12.683Z,21.13
2022-09-13T07:53:41.732Z,21.93
2022-09-13T07:56:14.134Z,21.00
2022-09-13T07:58:43.361Z,20.83
2022-09-13T08:01:12.985Z,21.47
2022-09-13T08:03:39.941Z,21.63
2022-09-13T08:06:08.119Z,20.53
2022-09-13T08:08:36.622Z,21.13
2022-09-13T08:11:06.292Z,21.80
2022-09-13T08:13:33.748Z,20.70
2022-09-13T08:16:05.958Z,20.20
2022-09-13T08:18:33.578Z,20.00
2022-09-13T08:21:01.419Z,20.50
2022-09-13T08:23:28.868Z,21.27
2022-09-13T08:26:01.704Z,20.33
2022-09-13T08:28:28.627Z,19.60
2022-09-13T08:30:55.618Z,20.47
2022-09-13T08:33:22.542Z,19.23
2022-09-13T08:35:53.248Z,24.97
2022-09-13T08:38:20.590Z,19.40
2022-09-13T08:40:59.592Z,19.07
2022-09-13T08:43:49.670Z,19.57
2022-09-13T08:46:33.133Z,26.27
2022-09-13T08:49:04.293Z,20.90
2022-09-13T08:51:45.456Z,26.07
2022-09-13T08:54:14.253Z,21.47
2022-09-13T08:57:06.470Z,23.67
2022-09-13T08:59:51.970Z,23.83
2022-09-13T09:02:27.915Z,24.73
2022-09-13T09:05:21.718Z,21.13
2022-09-13T09:08:09.924Z,20.83
2022-09-13T09:10:59.411Z,22.90
2022-09-13T09:13:57.795Z,25.97
2022-09-13T09:16:38.136Z,29.30
2022-09-13T09:19:15.684Z,23.63
2022-09-13T09:21:46.341Z,21.63
2022-09-13T09:24:20.850Z,22.00
2022-09-13T09:26:47.779Z,20.27
2022-09-13T09:29:25.881Z,19.03
2022-09-13T09:32:43.493Z,16.60
2022-09-13T09:35:48.022Z,15.83
2022-09-13T09:38:53.706Z,14.27
2022-09-13T09:41:28.244Z,13.83
2022-09-13T09:44:16.989Z,13.40
2022-09-13T09:46:48.095Z,12.80
2022-09-13T09:49:50.712Z,14.80
2022-09-13T09:52:22.753Z,13.33
2022-09-13T09:54:51.412Z,12.90
2022-09-13T09:57:20.756Z,12.20
2022-09-13T09:59:47.764Z,11.77
2022-09-13T10:02:22.215Z,12.97
2022-09-13T10:05:01.710Z,12.90
2022-09-13T10:07:33.004Z,14.13
2022-09-13T10:10:06.011Z,10.87
2022-09-13T10:12:36.029Z,12.07
2022-09-13T10:15:17.962Z,10.60
2022-09-13T10:18:03.241Z,9.07
2022-09-13T10:20:31.585Z,8.00
2022-09-13T10:23:18.319Z,7.97
2022-09-13T10:26:15.345Z,8.07
2022-09-13T10:28:52.684Z,7.40
2022-09-13T10:31:21.577Z,8.57
2022-09-13T10:33:51.278Z,7.70
2022-09-13T10:36:50.621Z,7.25
2022-09-13T10:39:19.018Z,8.93
2022-09-13T10:41:57.236Z,8.17
2022-09-13T10:44:33.174Z,10.13
2022-09-13T10:47:04.359Z,7.35
2022-09-13T10:49:53.342Z,10.03
2022-09-13T10:52:31.786Z,7.70
2022-09-13T10:55:18.541Z,7.27
2022-09-13T10:57:46.215Z,8.43
2022-09-13T11:00:14.707Z,6.47
2022-09-13T11:02:53.712Z,6.33
2022-09-13T11:06:01.265Z,5.65
2022-09-13T11:09:10.619Z,6.00
2022-09-13T11:11:58.501Z,5.60
2022-09-13T11:14:53.503Z,4.60
2022-09-13T11:17:35.734Z,3.60
2022-09-13T11:21:16.121Z,10.57
2022-09-13T11:24:00.665Z,4.95
2022-09-13T11:26:46.530Z,4.00
2022-09-13T11:29:34.837Z,4.63
2022-09-13T11:32:27.776Z,7.87
2022-09-13T11:35:06.605Z,12.13
2022-09-13T11:38:10.493Z,3.10
2022-09-13T11:41:14.952Z,2.70
2022-09-13T11:44:09.431Z,2.80
2022-09-13T11:46:42.290Z,3.10
2022-09-13T11:49:30.019Z,3.75
2022-09-13T11:52:08.730Z,5.17
2022-09-13T11:54:41.804Z,2.28
2022-09-13T11:57:13.949Z,2.33
2022-09-13T11:59:49.896Z,1.80
2022-09-13T12:02:29.915Z,1.75
2022-09-13T12:05:23.668Z,2.72
2022-09-13T12:08:11.264Z,3.45
2022-09-13T12:10:51.144Z,1.50
2022-09-13T12:13:31.420Z,3.17
2022-09-13T12:16:05.328Z,5.50
2022-09-13T12:18:42.090Z,1.63
2022-09-13T12:21:15.631Z,1.60
2022-09-13T12:24:05.722Z,2.15
2022-09-13T12:26:56.733Z,1.58
2022-09-13T12:29:40.592Z,3.35
2022-09-13T12:32:10.469Z,1.73
2022-09-13T12:34:49.274Z,1.40
2022-09-13T12:37:44.026Z,1.13
2022-09-13T12:40:35.654Z,1.60
2022-09-13T12:43:17.409Z,1.55
2022-09-13T12:46:16.596Z,1.50
2022-09-13T12:48:46.709Z,1.20
2022-09-13T12:51:28.655Z,1.27
2022-09-13T12:54:07.769Z,1.35
2022-09-13T12:57:03.382Z,1.38
2022-09-13T12:59:58.792Z,1.17
2022-09-13T13:02:31.034Z,1.75
2022-09-13T13:05:07.652Z,10.23
2022-09-13T13:07:37.945Z,1.00
2022-09-13T13:10:06.686Z,1.17
2022-09-13T13:12:40.145Z,1.10
2022-09-13T13:15:27.509Z,1.67
2022-09-13T13:17:55.952Z,1.20
2022-09-13T13:20:55.438Z,1.50
2022-09-13T13:23:30.135Z,6.25
2022-09-13T13:26:15.391Z,1.48
2022-09-13T13:28:48.065Z,1.13
2022-09-13T13:31:30.776Z,2.38
2022-09-13T13:34:08.798Z,9.25
2022-09-13T13:36:42.335Z,0.93
2022-09-13T13:39:33.986Z,0.93
2022-09-13T13:42:27.246Z,1.10
2022-09-13T13:44:54.316Z,0.90
2022-09-13T13:47:21.231Z,0.98
2022-09-13T13:50:04.474Z,1.02
2022-09-13T13:52:39.516Z,1.20
2022-09-13T13:55:33.898Z,2.72
2022-09-13T13:58:24.815Z,1.25
2022-09-13T14:00:53.846Z,0.98
2022-09-13T14:03:48.015Z,3.00
2022-09-13T14:06:49.284Z,4.72
2022-09-13T14:09:37.057Z,2.30
2022-09-13T14:12:20.251Z,12.00
2022-09-13T14:14:50.044Z,2.00
2022-09-13T14:17:40.014Z,4.03
2022-09-13T14:20:12.765Z,7.85
2022-09-13T14:22:39.715Z,1.70
2022-09-13T14:25:18.951Z,2.03
2022-09-13T14:27:48.913Z,2.58
2022-09-13T14:30:22.254Z,4.47
2022-09-13T14:32:53.110Z,1.30
2022-09-13T14:35:27.714Z,1.67
2022-09-13T14:37:57.090Z,19.13
2022-09-13T14:40:27.886Z,7.32
2022-09-13T14:42:56.064Z,1.30
2022-09-13T14:45:36.888Z,1.30
2022-09-13T14:48:13.063Z,3.30
2022-09-13T14:50:53.068Z,1.10
2022-09-13T14:53:27.066Z,15.55
2022-09-13T14:56:14.504Z,2.05
2022-09-13T14:58:54.563Z,1.67
2022-09-13T15:01:34.092Z,70.13
2022-09-13T15:04:03.559Z,12.18
2022-09-13T15:06:33.250Z,1.30
2022-09-13T15:09:16.693Z,1.00
2022-09-13T15:11:52.893Z,1.88
2022-09-13T15:14:35.188Z,1.33
2022-09-13T15:17:12.156Z,0.80
2022-09-13T15:19:49.003Z,1.00
2022-09-13T15:22:25.521Z,2.33
2022-09-13T15:24:55.401Z,2.60
2022-09-13T15:27:27.651Z,1.70
2022-09-13T15:30:06.163Z,5.82
2022-09-13T15:32:44.331Z,2.38
2022-09-13T15:35:41.461Z,2.30
2022-09-13T15:38:19.885Z,1.45
2022-09-13T15:41:03.719Z,1.20
2022-09-13T15:43:31.553Z,1.23
2022-09-13T15:45:59.810Z,1.23
2022-09-13T15:48:33.631Z,1.92
2022-09-13T15:51:12.431Z,2.15
2022-09-13T15:53:41.639Z,1.60
2022-09-13T15:56:54.928Z,1.70
2022-09-13T15:59:27.632Z,3.97
2022-09-13T16:09:29.675Z,1.70
2022-09-13T16:14:45.136Z,2.30
2022-09-13T22:24:05.895Z,2.80
2022-09-13T22:26:34.756Z,2.63
2022-09-13T22:29:02.176Z,2.43
2022-09-13T22:31:31.685Z,2.20
2022-09-13T22:34:02.140Z,2.30
2022-09-13T22:36:29.780Z,2.30
2022-09-13T22:38:57.334Z,2.07
2022-09-13T22:41:27.848Z,2.67
2022-09-13T22:43:55.305Z,2.60
2022-09-13T22:46:27.566Z,2.90
2022-09-13T22:48:55.519Z,3.10
2022-09-13T22:51:23.556Z,3.17
2022-09-13T22:53:52.274Z,2.87
2022-09-13T22:56:24.726Z,2.93
2022-09-13T22:59:00.471Z,2.93
2022-09-13T23:01:28.786Z,3.40
2022-09-13T23:03:56.664Z,3.47
2022-09-13T23:06:25.608Z,2.97
2022-09-13T23:08:54.489Z,3.33
2022-09-13T23:11:25.630Z,3.50
2022-09-13T23:13:55.962Z,2.97
2022-09-13T23:16:31.438Z,3.40
2022-09-13T23:18:59.755Z,3.27
2022-09-13T23:21:30.133Z,3.30
2022-09-13T23:23:59.056Z,3.67
2022-09-13T23:26:26.643Z,3.83
2022-09-13T23:28:59.006Z,2.97
2022-09-13T23:31:28.941Z,3.50
2022-09-13T23:33:59.824Z,3.13
2022-09-13T23:36:29.745Z,2.87
2022-09-13T23:38:58.416Z,2.80
2022-09-13T23:41:26.392Z,2.70
2022-09-13T23:43:54.293Z,2.80
2022-09-13T23:46:21.687Z,3.30
2022-09-13T23:48:49.285Z,2.60
2022-09-13T23:51:20.076Z,3.77
2022-09-13T23:53:47.382Z,3.60
2022-09-13T23:56:14.648Z,3.40
2022-09-13T23:58:41.653Z,3.40
